createdAt,value
2019-02-10T00:00:00.730Z,65.60
2019-02-10T00:00:39.450Z,65.60
2019-02-10T00:01:15.804Z,65.50
2019-02-10T00:01:50.375Z,65.50
2019-02-10T00:02:24.841Z,65.60
2019-02-10T00:02:59.497Z,65.70
2019-02-10T00:03:34.093Z,65.70
2019-02-10T00:04:08.632Z,65.70
2019-02-10T00:04:43.117Z,65.70
2019-02-10T00:05:17.568Z,65.50
2019-02-10T00:05:52.028Z,65.50
2019-02-10T00:06:26.689Z,65.50
2019-02-10T00:07:01.154Z,65.60
2019-02-10T00:07:35.642Z,65.70
2019-02-10T00:08:10.276Z,65.70
2019-02-10T00:08:44.835Z,65.80
2019-02-10T00:09:19.360Z,66.00
2019-02-10T00:09:53.874Z,66.00
2019-02-10T00:10:28.317Z,66.10
2019-02-10T00:11:02.773Z,66.10
2019-02-10T00:11:37.223Z,66.20
2019-02-10T00:12:11.674Z,66.20
2019-02-10T00:13:20.823Z,66.10
2019-02-10T00:13:55.324Z,66.20
2019-02-10T00:14:29.845Z,66.30
2019-02-10T00:15:05.868Z,66.30
2019-02-10T00:15:40.318Z,66.40
2019-02-10T00:16:16.430Z,66.40
2019-02-10T00:16:50.876Z,66.40
2019-02-10T00:17:25.332Z,66.30
2019-02-10T00:17:59.800Z,66.20
2019-02-10T00:18:34.338Z,66.20
2019-02-10T00:19:08.929Z,66.20
2019-02-10T00:19:43.416Z,66.20
2019-02-10T00:20:17.903Z,66.20
2019-02-10T00:20:52.403Z,66.20
2019-02-10T00:21:27.099Z,66.20
2019-02-10T00:22:01.616Z,66.30
2019-02-10T00:22:36.082Z,66.30
2019-02-10T00:23:10.538Z,66.30
2019-02-10T00:23:45.078Z,66.40
2019-02-10T00:24:19.536Z,66.40
2019-02-10T00:24:54.041Z,66.50
2019-02-10T00:25:28.799Z,66.40
2019-02-10T00:26:03.292Z,66.40
2019-02-10T00:26:37.822Z,66.50
2019-02-10T00:27:12.315Z,66.60
2019-02-10T00:27:46.776Z,66.60
2019-02-10T00:28:21.320Z,66.70
2019-02-10T00:28:55.792Z,66.60
2019-02-10T00:29:30.634Z,66.70
2019-02-10T00:30:05.799Z,66.70
2019-02-10T00:30:40.246Z,67.00
2019-02-10T00:31:14.733Z,67.10
2019-02-10T00:31:49.210Z,67.10
2019-02-10T00:32:23.683Z,67.10
2019-02-10T00:32:58.136Z,67.10
2019-02-10T00:33:32.606Z,67.00
2019-02-10T00:34:07.123Z,67.00
2019-02-10T00:34:41.580Z,67.00
2019-02-10T00:35:16.105Z,66.90
2019-02-10T00:35:50.630Z,66.80
2019-02-10T00:36:32.653Z,66.70
2019-02-10T00:37:01.270Z,66.80
2019-02-10T00:37:35.743Z,66.80
2019-02-10T00:38:10.227Z,66.90
2019-02-10T00:38:44.742Z,67.00
2019-02-10T00:39:19.299Z,67.00
2019-02-10T00:39:53.836Z,66.90
2019-02-10T00:40:28.411Z,66.90
2019-02-10T00:41:03.011Z,66.90
2019-02-10T00:41:37.546Z,66.80
2019-02-10T00:42:12.094Z,66.90
2019-02-10T00:42:46.571Z,66.80
2019-02-10T00:43:21.311Z,66.90
2019-02-10T00:43:55.874Z,66.90
2019-02-10T00:44:30.434Z,67.00
2019-02-10T00:45:05.643Z,67.00
2019-02-10T00:45:40.099Z,67.00
2019-02-10T00:46:15.096Z,67.10
2019-02-10T00:46:49.550Z,67.10
2019-02-10T00:47:24.014Z,67.10
2019-02-10T00:47:58.545Z,67.10
2019-02-10T00:48:33.237Z,67.10
2019-02-10T00:49:07.777Z,67.10
2019-02-10T00:49:42.322Z,67.10
2019-02-10T00:50:16.783Z,67.20
2019-02-10T00:50:51.653Z,67.20
2019-02-10T00:51:26.113Z,67.20
2019-02-10T00:52:00.629Z,67.30
2019-02-10T00:52:35.166Z,67.50
2019-02-10T00:53:09.617Z,67.50
2019-02-10T00:53:44.097Z,67.40
2019-02-10T00:54:18.554Z,67.30
2019-02-10T00:54:53.051Z,67.40
2019-02-10T00:55:27.588Z,67.40
2019-02-10T00:56:02.121Z,67.30
2019-02-10T00:56:36.704Z,67.30
2019-02-10T00:57:11.185Z,67.20
2019-02-10T00:57:45.777Z,67.20
2019-02-10T00:58:20.230Z,67.10
2019-02-10T00:58:54.685Z,67.10
2019-02-10T00:59:29.174Z,67.10
2019-02-10T01:00:04.977Z,67.00
2019-02-10T01:00:39.618Z,67.10
2019-02-10T01:01:14.121Z,67.20
2019-02-10T01:01:48.701Z,67.00
2019-02-10T01:02:23.174Z,67.10
2019-02-10T01:02:57.721Z,67.10
2019-02-10T01:03:32.189Z,67.20
2019-02-10T01:04:06.744Z,67.20
2019-02-10T01:04:41.390Z,67.20
2019-02-10T01:05:15.966Z,67.10
2019-02-10T01:05:50.555Z,67.10
2019-02-10T01:06:25.292Z,67.00
2019-02-10T01:06:59.879Z,66.90
2019-02-10T01:07:34.402Z,67.10
2019-02-10T01:08:09.078Z,67.10
2019-02-10T01:08:43.533Z,67.20
2019-02-10T01:09:18.071Z,67.30
2019-02-10T01:09:52.551Z,67.30
2019-02-10T01:10:27.110Z,67.40
2019-02-10T01:11:01.625Z,67.20
2019-02-10T01:11:36.082Z,67.10
2019-02-10T01:12:10.652Z,67.10
2019-02-10T01:12:45.277Z,67.30
2019-02-10T01:13:19.854Z,67.20
2019-02-10T01:13:54.438Z,67.20
2019-02-10T01:15:22.703Z,67.10
2019-02-10T01:15:57.319Z,67.10
2019-02-10T01:16:32.102Z,67.20
2019-02-10T01:17:06.566Z,67.30
2019-02-10T01:17:41.041Z,67.40
2019-02-10T01:18:15.500Z,67.50
2019-02-10T01:19:06.658Z,67.60
2019-02-10T01:19:41.131Z,67.80
2019-02-10T01:20:15.682Z,68.00
2019-02-10T01:20:50.128Z,68.10
2019-02-10T01:21:24.590Z,68.10
2019-02-10T01:21:59.038Z,68.10
2019-02-10T01:22:33.503Z,68.10
2019-02-10T01:23:08.054Z,68.00
2019-02-10T01:23:42.501Z,68.00
2019-02-10T01:24:16.964Z,67.80
2019-02-10T01:24:51.413Z,68.50
2019-02-10T01:25:25.947Z,67.90
2019-02-10T01:26:01.470Z,68.00
2019-02-10T01:26:36.227Z,68.10
2019-02-10T01:27:10.770Z,68.10
2019-02-10T01:27:45.321Z,68.10
2019-02-10T01:28:19.808Z,68.00
2019-02-10T01:28:54.323Z,68.00
2019-02-10T01:29:28.879Z,68.00
2019-02-10T01:30:06.733Z,68.20
2019-02-10T01:30:43.418Z,68.30
2019-02-10T01:31:17.871Z,68.40
2019-02-10T01:31:52.347Z,68.40
2019-02-10T01:32:26.901Z,68.30
2019-02-10T01:33:01.347Z,68.50
2019-02-10T01:33:35.805Z,68.50
2019-02-10T01:34:10.343Z,68.60
2019-02-10T01:34:44.815Z,68.60
2019-02-10T01:35:19.266Z,68.60
2019-02-10T01:35:53.742Z,68.90
2019-02-10T01:36:28.231Z,69.00
2019-02-10T01:37:02.741Z,69.10
2019-02-10T01:37:37.298Z,69.10
2019-02-10T01:38:11.844Z,69.20
2019-02-10T01:38:46.649Z,69.20
2019-02-10T01:39:21.663Z,69.20
2019-02-10T01:39:56.320Z,69.40
2019-02-10T01:40:30.907Z,69.30
2019-02-10T01:41:05.483Z,69.50
2019-02-10T01:41:40.083Z,69.90
2019-02-10T01:42:14.583Z,69.70
2019-02-10T01:42:49.037Z,69.80
2019-02-10T01:43:23.561Z,70.10
2019-02-10T01:43:58.235Z,70.10
2019-02-10T01:44:32.758Z,70.30
2019-02-10T01:45:09.897Z,70.40
2019-02-10T01:45:44.399Z,70.30
2019-02-10T01:46:18.885Z,70.20
2019-02-10T01:46:53.396Z,70.20
2019-02-10T01:47:28.130Z,70.20
2019-02-10T01:48:02.657Z,70.30
2019-02-10T01:48:37.292Z,70.30
2019-02-10T01:49:14.580Z,70.30
2019-02-10T01:49:49.045Z,70.30
2019-02-10T01:50:23.518Z,70.30
2019-02-10T01:50:58.057Z,70.50
2019-02-10T01:51:32.510Z,70.50
2019-02-10T01:52:06.984Z,70.60
2019-02-10T01:52:41.497Z,70.60
2019-02-10T01:53:16.034Z,70.70
2019-02-10T01:53:50.507Z,70.70
2019-02-10T01:54:24.961Z,70.80
2019-02-10T01:54:59.386Z,70.80
2019-02-10T01:55:34.001Z,71.00
2019-02-10T01:56:08.492Z,71.00
2019-02-10T01:56:43.020Z,71.00
2019-02-10T01:57:17.493Z,71.00
2019-02-10T01:57:52.291Z,71.00
2019-02-10T01:59:20.568Z,71.00
2019-02-10T02:00:48.750Z,71.00
2019-02-10T02:01:23.277Z,71.40
2019-02-10T02:01:57.748Z,71.60
2019-02-10T02:02:32.244Z,71.60
2019-02-10T02:03:06.772Z,71.50
2019-02-10T02:03:41.343Z,71.50
2019-02-10T02:04:15.905Z,71.50
2019-02-10T02:04:50.448Z,71.50
2019-02-10T02:05:25.125Z,71.50
2019-02-10T02:05:59.596Z,71.60
2019-02-10T02:06:34.053Z,72.30
2019-02-10T02:07:08.784Z,71.60
2019-02-10T02:07:43.268Z,71.60
2019-02-10T02:08:17.709Z,71.70
2019-02-10T02:08:52.242Z,71.70
2019-02-10T02:09:26.873Z,71.70
2019-02-10T02:10:21.001Z,71.70
2019-02-10T02:10:55.452Z,71.70
2019-02-10T02:11:29.971Z,71.80
2019-02-10T02:12:04.761Z,71.90
2019-02-10T02:12:39.223Z,71.90
2019-02-10T02:13:13.716Z,72.00
2019-02-10T02:13:48.245Z,72.00
2019-02-10T02:14:22.805Z,72.10
2019-02-10T02:14:57.871Z,72.10
2019-02-10T02:15:32.377Z,72.00
2019-02-10T02:16:06.904Z,71.80
2019-02-10T02:16:41.361Z,71.70
2019-02-10T02:17:15.815Z,71.70
2019-02-10T02:17:50.286Z,71.70
2019-02-10T02:18:24.740Z,71.60
2019-02-10T02:18:59.199Z,71.60
2019-02-10T02:19:33.799Z,71.60
2019-02-10T02:20:09.814Z,71.60
2019-02-10T02:20:44.325Z,71.90
2019-02-10T02:21:18.794Z,71.90
2019-02-10T02:21:53.245Z,72.00
2019-02-10T02:22:27.800Z,72.10
2019-02-10T02:23:02.253Z,72.00
2019-02-10T02:23:36.790Z,72.00
2019-02-10T02:24:11.257Z,71.90
2019-02-10T02:24:45.777Z,71.90
2019-02-10T02:25:20.886Z,72.00
2019-02-10T02:25:55.633Z,72.00
2019-02-10T02:26:30.114Z,72.10
2019-02-10T02:27:04.645Z,72.20
2019-02-10T02:27:39.275Z,72.20
2019-02-10T02:28:13.791Z,72.30
2019-02-10T02:28:48.311Z,72.20
2019-02-10T02:29:22.784Z,72.20
2019-02-10T02:29:57.325Z,72.30
2019-02-10T02:30:31.833Z,72.20
2019-02-10T02:31:06.280Z,72.10
2019-02-10T02:32:34.762Z,72.20
2019-02-10T02:33:39.096Z,72.20
2019-02-10T02:34:13.617Z,72.30
2019-02-10T02:34:48.077Z,72.40
2019-02-10T02:35:22.693Z,72.40
2019-02-10T02:35:57.158Z,72.50
2019-02-10T02:36:33.870Z,72.40
2019-02-10T02:37:09.379Z,72.40
2019-02-10T02:37:43.831Z,72.40
2019-02-10T02:38:18.300Z,72.40
2019-02-10T02:38:52.945Z,72.40
2019-02-10T02:39:27.397Z,72.40
2019-02-10T02:40:01.850Z,72.40
2019-02-10T02:40:36.324Z,72.70
2019-02-10T02:41:10.762Z,72.70
2019-02-10T02:41:45.233Z,72.70
2019-02-10T02:42:19.695Z,72.70
2019-02-10T02:42:54.178Z,72.90
2019-02-10T02:43:29.040Z,73.00
2019-02-10T02:44:03.612Z,72.90
2019-02-10T02:44:38.062Z,72.80
2019-02-10T02:45:12.701Z,72.80
2019-02-10T02:45:47.161Z,72.80
2019-02-10T02:46:21.622Z,72.90
2019-02-10T02:46:56.101Z,73.00
2019-02-10T02:47:30.560Z,73.10
2019-02-10T02:48:05.024Z,73.10
2019-02-10T02:48:39.551Z,73.00
2019-02-10T02:49:14.003Z,73.00
2019-02-10T02:49:48.469Z,73.20
2019-02-10T02:50:22.920Z,73.40
2019-02-10T02:50:57.384Z,73.60
2019-02-10T02:51:31.856Z,73.60
2019-02-10T02:52:06.296Z,73.70
2019-02-10T02:52:40.986Z,73.60
2019-02-10T02:53:15.550Z,73.60
2019-02-10T02:53:50.083Z,73.30
2019-02-10T02:54:24.606Z,73.30
2019-02-10T02:54:59.064Z,73.90
2019-02-10T02:55:33.537Z,73.20
2019-02-10T02:56:08.030Z,73.30
2019-02-10T02:56:42.541Z,73.30
2019-02-10T02:57:16.999Z,73.30
2019-02-10T02:57:51.462Z,73.30
2019-02-10T02:58:25.916Z,73.30
2019-02-10T02:59:00.394Z,73.20
2019-02-10T02:59:34.988Z,73.30
2019-02-10T03:00:12.719Z,73.40
2019-02-10T03:00:47.238Z,73.10
2019-02-10T03:01:21.716Z,73.10
2019-02-10T03:01:56.220Z,73.10
2019-02-10T03:02:30.679Z,73.10
2019-02-10T03:03:05.307Z,72.90
2019-02-10T03:03:39.801Z,72.80
2019-02-10T03:04:14.293Z,72.70
2019-02-10T03:04:48.827Z,72.60
2019-02-10T03:05:23.297Z,72.60
2019-02-10T03:05:57.780Z,72.60
2019-02-10T03:06:33.882Z,72.60
2019-02-10T03:07:17.567Z,72.70
2019-02-10T03:07:44.598Z,72.80
2019-02-10T03:08:19.065Z,72.60
2019-02-10T03:08:53.527Z,72.60
2019-02-10T03:09:28.030Z,72.60
2019-02-10T03:10:02.604Z,72.80
2019-02-10T03:10:37.054Z,72.90
2019-02-10T03:11:11.525Z,72.80
2019-02-10T03:11:46.156Z,72.90
2019-02-10T03:12:20.615Z,73.00
2019-02-10T03:12:55.075Z,72.90
2019-02-10T03:13:29.546Z,72.60
2019-02-10T03:14:05.627Z,72.60
2019-02-10T03:14:40.090Z,72.40
2019-02-10T03:15:14.614Z,72.40
2019-02-10T03:15:49.078Z,72.30
2019-02-10T03:16:23.600Z,72.10
2019-02-10T03:16:58.072Z,72.10
2019-02-10T03:17:32.504Z,72.20
2019-02-10T03:18:06.978Z,72.20
2019-02-10T03:18:41.457Z,72.30
2019-02-10T03:19:15.923Z,72.40
2019-02-10T03:19:50.387Z,72.40
2019-02-10T03:20:24.949Z,72.30
2019-02-10T03:20:59.394Z,72.30
2019-02-10T03:21:33.862Z,72.30
2019-02-10T03:22:08.549Z,72.40
2019-02-10T03:22:43.060Z,72.40
2019-02-10T03:23:17.631Z,72.30
2019-02-10T03:23:52.070Z,72.30
2019-02-10T03:24:26.576Z,72.20
2019-02-10T03:25:01.022Z,72.10
2019-02-10T03:25:35.485Z,72.10
2019-02-10T03:26:09.969Z,72.10
2019-02-10T03:26:44.419Z,72.10
2019-02-10T03:27:18.919Z,72.20
2019-02-10T03:27:53.679Z,72.40
2019-02-10T03:28:28.148Z,72.50
2019-02-10T03:29:02.608Z,72.30
2019-02-10T03:29:37.046Z,72.40
2019-02-10T03:30:12.167Z,72.50
2019-02-10T03:30:46.634Z,72.20
2019-02-10T03:31:21.163Z,72.30
2019-02-10T03:31:55.602Z,72.40
2019-02-10T03:32:30.229Z,72.40
2019-02-10T03:33:04.713Z,72.50
2019-02-10T03:33:39.172Z,72.50
2019-02-10T03:34:13.693Z,72.50
2019-02-10T03:34:48.241Z,72.40
2019-02-10T03:35:22.712Z,72.30
2019-02-10T03:35:57.197Z,72.10
2019-02-10T03:36:31.667Z,71.90
2019-02-10T03:37:06.274Z,71.90
2019-02-10T03:37:40.828Z,71.70
2019-02-10T03:38:15.314Z,71.80
2019-02-10T03:38:49.794Z,71.80
2019-02-10T03:39:39.126Z,71.70
2019-02-10T03:40:13.791Z,71.60
2019-02-10T03:40:48.308Z,71.50
2019-02-10T03:41:22.890Z,71.70
2019-02-10T03:41:57.396Z,71.80
2019-02-10T03:42:31.851Z,71.90
2019-02-10T03:43:06.374Z,71.80
2019-02-10T03:43:40.844Z,71.90
2019-02-10T03:44:15.305Z,71.80
2019-02-10T03:44:49.771Z,71.70
2019-02-10T03:45:43.925Z,71.60
2019-02-10T03:46:18.368Z,71.40
2019-02-10T03:46:52.837Z,71.30
2019-02-10T03:47:27.362Z,71.20
2019-02-10T03:48:02.051Z,71.40
2019-02-10T03:48:36.510Z,71.30
2019-02-10T03:49:10.974Z,71.40
2019-02-10T03:49:45.427Z,71.30
2019-02-10T03:50:19.879Z,71.30
2019-02-10T03:50:54.343Z,71.30
2019-02-10T03:51:28.802Z,71.40
2019-02-10T03:52:04.769Z,71.30
2019-02-10T03:52:39.304Z,71.20
2019-02-10T03:53:13.767Z,71.10
2019-02-10T03:53:48.348Z,70.90
2019-02-10T03:54:22.875Z,70.90
2019-02-10T03:54:57.327Z,70.80
2019-02-10T03:55:31.844Z,70.90
2019-02-10T03:56:06.302Z,70.90
2019-02-10T03:56:40.855Z,70.80
2019-02-10T03:57:15.296Z,71.00
2019-02-10T03:57:49.757Z,70.90
2019-02-10T03:58:24.292Z,70.90
2019-02-10T03:58:59.083Z,71.00
2019-02-10T03:59:33.767Z,71.60
2019-02-10T04:00:14.247Z,70.90
2019-02-10T04:00:48.762Z,70.70
2019-02-10T04:01:23.210Z,70.70
2019-02-10T04:01:57.674Z,70.80
2019-02-10T04:02:32.390Z,70.90
2019-02-10T04:03:06.839Z,70.80
2019-02-10T04:03:41.287Z,70.80
2019-02-10T04:04:15.771Z,70.70
2019-02-10T04:04:50.254Z,70.80
2019-02-10T04:05:24.712Z,70.80
2019-02-10T04:05:59.348Z,70.80
2019-02-10T04:06:33.805Z,71.40
2019-02-10T04:07:08.292Z,70.70
2019-02-10T04:07:42.791Z,70.60
2019-02-10T04:08:17.249Z,70.70
2019-02-10T04:08:51.714Z,70.70
2019-02-10T04:09:26.235Z,70.80
2019-02-10T04:10:00.706Z,70.90
2019-02-10T04:10:35.164Z,70.80
2019-02-10T04:11:10.058Z,70.90
2019-02-10T04:11:44.493Z,70.90
2019-02-10T04:12:18.965Z,70.90
2019-02-10T04:13:29.353Z,71.00
2019-02-10T04:14:03.929Z,71.00
2019-02-10T04:14:38.623Z,71.60
2019-02-10T04:15:13.145Z,70.90
2019-02-10T04:15:47.600Z,70.90
2019-02-10T04:16:22.063Z,71.00
2019-02-10T04:16:58.873Z,71.30
2019-02-10T04:17:33.334Z,71.50
2019-02-10T04:18:07.800Z,71.50
2019-02-10T04:18:42.496Z,71.60
2019-02-10T04:19:16.954Z,71.80
2019-02-10T04:19:51.406Z,71.70
2019-02-10T04:20:25.886Z,71.40
2019-02-10T04:21:00.337Z,71.40
2019-02-10T04:21:34.836Z,71.40
2019-02-10T04:22:09.316Z,71.30
2019-02-10T04:22:45.041Z,71.30
2019-02-10T04:23:19.564Z,71.10
2019-02-10T04:23:54.041Z,70.90
2019-02-10T04:24:28.761Z,71.60
2019-02-10T04:25:03.244Z,70.90
2019-02-10T04:25:37.772Z,70.70
2019-02-10T04:26:12.684Z,70.70
2019-02-10T04:26:47.138Z,70.50
2019-02-10T04:27:21.785Z,70.40
2019-02-10T04:27:56.236Z,70.40
2019-02-10T04:28:30.944Z,70.60
2019-02-10T04:29:05.480Z,70.60
2019-02-10T04:29:39.934Z,70.30
2019-02-10T04:30:14.392Z,70.40
2019-02-10T04:30:48.905Z,70.50
2019-02-10T04:31:23.414Z,70.50
2019-02-10T04:31:57.947Z,70.60
2019-02-10T04:32:32.404Z,70.40
2019-02-10T04:33:06.875Z,70.40
2019-02-10T04:33:41.334Z,70.20
2019-02-10T04:34:15.805Z,70.30
2019-02-10T04:34:50.284Z,70.20
2019-02-10T04:35:24.761Z,70.40
2019-02-10T04:35:59.301Z,70.40
2019-02-10T04:36:33.838Z,70.40
2019-02-10T04:37:08.297Z,70.30
2019-02-10T04:38:36.595Z,70.10
2019-02-10T04:39:11.053Z,70.10
2019-02-10T04:39:45.519Z,69.90
2019-02-10T04:40:20.038Z,70.00
2019-02-10T04:40:55.912Z,70.10
2019-02-10T04:41:30.418Z,70.20
2019-02-10T04:42:04.884Z,70.10
2019-02-10T04:42:39.338Z,70.10
2019-02-10T04:43:13.778Z,70.00
2019-02-10T04:43:48.239Z,70.00
2019-02-10T04:44:22.704Z,69.90
2019-02-10T04:44:57.153Z,70.00
2019-02-10T04:45:31.606Z,70.00
2019-02-10T04:46:06.077Z,70.00
2019-02-10T04:46:40.527Z,70.00
2019-02-10T04:47:15.009Z,70.10
2019-02-10T04:47:55.529Z,70.00
2019-02-10T04:48:30.015Z,69.90
2019-02-10T04:49:04.480Z,69.90
2019-02-10T04:49:38.923Z,69.90
2019-02-10T04:50:13.393Z,69.90
2019-02-10T04:50:47.838Z,69.90
2019-02-10T04:51:22.303Z,69.80
2019-02-10T04:51:56.828Z,69.90
2019-02-10T04:52:31.289Z,70.00
2019-02-10T04:53:05.763Z,70.10
2019-02-10T04:53:40.290Z,70.10
2019-02-10T04:54:14.987Z,69.80
2019-02-10T04:54:49.531Z,69.80
2019-02-10T04:55:24.031Z,69.80
2019-02-10T04:56:10.032Z,69.90
2019-02-10T04:56:44.479Z,69.90
2019-02-10T04:57:18.930Z,69.80
2019-02-10T04:57:53.397Z,69.70
2019-02-10T04:58:27.901Z,69.90
2019-02-10T04:59:02.366Z,69.90
2019-02-10T04:59:36.916Z,69.90
2019-02-10T05:00:11.456Z,69.90
2019-02-10T05:00:45.906Z,69.70
2019-02-10T05:01:20.384Z,69.70
2019-02-10T05:01:54.824Z,69.60
2019-02-10T05:02:29.285Z,70.40
2019-02-10T05:03:03.746Z,69.50
2019-02-10T05:03:38.291Z,69.20
2019-02-10T05:04:12.806Z,69.20
2019-02-10T05:04:47.253Z,69.20
2019-02-10T05:05:21.704Z,69.30
2019-02-10T05:05:56.159Z,69.30
2019-02-10T05:06:30.623Z,69.30
2019-02-10T05:07:05.095Z,69.30
2019-02-10T05:07:39.616Z,69.20
2019-02-10T05:08:14.063Z,68.80
2019-02-10T05:08:48.539Z,68.60
2019-02-10T05:09:22.991Z,68.60
2019-02-10T05:09:57.443Z,68.60
2019-02-10T05:10:31.903Z,68.70
2019-02-10T05:11:06.390Z,68.50
2019-02-10T05:11:40.884Z,68.40
2019-02-10T05:12:30.155Z,68.30
2019-02-10T05:13:04.599Z,68.40
2019-02-10T05:13:39.070Z,68.50
2019-02-10T05:14:13.510Z,68.50
2019-02-10T05:14:47.984Z,68.60
2019-02-10T05:15:22.454Z,68.30
2019-02-10T05:15:59.834Z,68.30
2019-02-10T05:16:34.295Z,68.40
2019-02-10T05:17:08.757Z,68.30
2019-02-10T05:17:43.301Z,68.30
2019-02-10T05:18:17.736Z,68.30
2019-02-10T05:18:52.187Z,68.20
2019-02-10T05:19:26.685Z,68.20
2019-02-10T05:20:01.175Z,68.30
2019-02-10T05:20:36.606Z,68.40
2019-02-10T05:21:11.111Z,68.30
2019-02-10T05:21:45.562Z,68.30
2019-02-10T05:22:20.027Z,68.10
2019-02-10T05:22:54.502Z,68.20
2019-02-10T05:23:29.007Z,68.10
2019-02-10T05:24:03.967Z,68.10
2019-02-10T05:24:38.513Z,68.10
2019-02-10T05:25:12.971Z,68.20
2019-02-10T05:25:47.431Z,68.20
2019-02-10T05:26:22.123Z,68.50
2019-02-10T05:26:56.578Z,68.50
2019-02-10T05:27:31.332Z,68.50
2019-02-10T05:28:05.846Z,68.00
2019-02-10T05:28:40.294Z,68.00
2019-02-10T05:29:14.747Z,68.00
2019-02-10T05:29:49.199Z,68.10
2019-02-10T05:30:23.658Z,68.10
2019-02-10T05:30:58.122Z,67.90
2019-02-10T05:31:32.639Z,67.60
2019-02-10T05:32:07.089Z,67.60
2019-02-10T05:32:41.550Z,67.70
2019-02-10T05:33:16.015Z,67.80
2019-02-10T05:33:50.454Z,67.90
2019-02-10T05:34:24.917Z,67.90
2019-02-10T05:34:59.361Z,67.80
2019-02-10T05:35:33.822Z,67.80
2019-02-10T05:36:08.275Z,67.80
2019-02-10T05:36:42.795Z,67.70
2019-02-10T05:37:17.251Z,67.60
2019-02-10T05:37:51.689Z,67.40
2019-02-10T05:38:26.234Z,67.10
2019-02-10T05:39:00.957Z,67.20
2019-02-10T05:39:35.413Z,67.10
2019-02-10T05:40:09.854Z,67.10
2019-02-10T05:40:44.304Z,67.10
2019-02-10T05:41:18.837Z,67.00
2019-02-10T05:41:53.294Z,66.80
2019-02-10T05:42:27.747Z,66.70
2019-02-10T05:43:02.217Z,66.70
2019-02-10T05:43:36.746Z,66.70
2019-02-10T05:44:11.190Z,66.30
2019-02-10T05:44:45.667Z,66.40
2019-02-10T05:45:20.125Z,66.60
2019-02-10T05:45:54.604Z,66.60
2019-02-10T05:46:29.194Z,66.70
2019-02-10T05:47:03.636Z,66.70
2019-02-10T05:47:38.136Z,66.70
2019-02-10T05:48:12.882Z,66.80
2019-02-10T05:48:47.343Z,66.80
2019-02-10T05:49:21.791Z,66.60
2019-02-10T05:49:56.243Z,66.50
2019-02-10T05:50:30.689Z,66.40
2019-02-10T05:51:05.199Z,66.40
2019-02-10T05:51:39.653Z,66.50
2019-02-10T05:52:14.127Z,66.40
2019-02-10T05:52:48.579Z,66.40
2019-02-10T05:53:23.059Z,66.50
2019-02-10T05:53:59.128Z,66.40
2019-02-10T05:54:33.603Z,66.40
2019-02-10T05:55:08.067Z,66.50
2019-02-10T05:55:42.554Z,66.50
2019-02-10T05:56:17.057Z,66.60
2019-02-10T05:56:51.507Z,66.80
2019-02-10T05:57:25.969Z,66.80
2019-02-10T05:58:00.429Z,67.40
2019-02-10T05:58:34.916Z,66.70
2019-02-10T05:59:09.353Z,66.60
2019-02-10T05:59:43.833Z,66.70
2019-02-10T06:00:18.302Z,66.70
2019-02-10T06:00:52.749Z,66.60
2019-02-10T06:01:55.694Z,66.70
2019-02-10T06:02:31.740Z,66.70
2019-02-10T06:03:06.261Z,66.50
2019-02-10T06:03:40.712Z,66.60
2019-02-10T06:04:15.164Z,66.60
2019-02-10T06:04:50.793Z,66.50
2019-02-10T06:05:25.245Z,66.30
2019-02-10T06:05:59.939Z,66.30
2019-02-10T06:06:34.391Z,66.40
2019-02-10T06:07:16.851Z,66.50
2019-02-10T06:07:51.515Z,66.50
2019-02-10T06:08:25.967Z,66.70
2019-02-10T06:09:00.434Z,66.70
2019-02-10T06:09:34.901Z,66.80
2019-02-10T06:10:09.583Z,66.80
2019-02-10T06:10:44.045Z,66.90
2019-02-10T06:11:18.520Z,67.10
2019-02-10T06:11:52.985Z,67.20
2019-02-10T06:12:27.424Z,67.10
2019-02-10T06:13:01.918Z,66.90
2019-02-10T06:13:36.404Z,66.70
2019-02-10T06:14:10.858Z,66.60
2019-02-10T06:14:45.298Z,66.60
2019-02-10T06:15:19.773Z,66.60
2019-02-10T06:15:54.237Z,66.60
2019-02-10T06:16:30.545Z,66.70
2019-02-10T06:17:05.918Z,66.80
2019-02-10T06:17:40.437Z,66.90
2019-02-10T06:18:14.889Z,66.90
2019-02-10T06:18:49.348Z,67.10
2019-02-10T06:19:23.788Z,67.10
2019-02-10T06:19:58.274Z,67.20
2019-02-10T06:20:32.729Z,67.20
2019-02-10T06:21:07.190Z,67.30
2019-02-10T06:21:41.657Z,67.30
2019-02-10T06:22:16.106Z,67.30
2019-02-10T06:22:50.566Z,67.20
2019-02-10T06:23:25.028Z,67.10
2019-02-10T06:23:59.499Z,67.30
2019-02-10T06:24:33.957Z,67.20
2019-02-10T06:25:09.036Z,67.20
2019-02-10T06:25:44.050Z,67.20
2019-02-10T06:26:18.501Z,67.20
2019-02-10T06:26:53.166Z,67.10
2019-02-10T06:27:27.642Z,67.10
2019-02-10T06:28:02.139Z,67.10
2019-02-10T06:28:36.589Z,67.10
2019-02-10T06:29:11.048Z,67.20
2019-02-10T06:29:45.602Z,67.30
2019-02-10T06:30:20.043Z,67.20
2019-02-10T06:30:54.494Z,67.00
2019-02-10T06:31:29.252Z,66.90
2019-02-10T06:32:03.849Z,67.00
2019-02-10T06:32:38.385Z,67.10
2019-02-10T06:33:12.849Z,67.30
2019-02-10T06:33:47.312Z,67.30
2019-02-10T06:34:22.201Z,67.30
2019-02-10T06:34:56.660Z,67.30
2019-02-10T06:35:31.158Z,67.30
2019-02-10T06:36:05.617Z,67.40
2019-02-10T06:36:40.152Z,67.40
2019-02-10T06:37:14.609Z,67.30
2019-02-10T06:37:49.090Z,67.30
2019-02-10T06:38:23.526Z,67.10
2019-02-10T06:38:57.986Z,67.10
2019-02-10T06:39:32.487Z,67.10
2019-02-10T06:40:08.507Z,67.10
2019-02-10T06:40:43.082Z,66.90
2019-02-10T06:41:17.541Z,66.80
2019-02-10T06:41:51.984Z,66.60
2019-02-10T06:42:27.194Z,66.70
2019-02-10T06:43:01.748Z,66.60
2019-02-10T06:43:36.268Z,66.60
2019-02-10T06:44:10.771Z,66.60
2019-02-10T06:44:45.210Z,66.40
2019-02-10T06:45:19.677Z,66.40
2019-02-10T06:45:54.391Z,66.50
2019-02-10T06:46:28.849Z,66.50
2019-02-10T06:47:03.346Z,66.40
2019-02-10T06:47:37.838Z,66.30
2019-02-10T06:48:12.287Z,66.30
2019-02-10T06:48:46.744Z,66.40
2019-02-10T06:49:21.193Z,66.40
2019-02-10T06:49:55.665Z,66.50
2019-02-10T06:50:30.130Z,66.60
2019-02-10T06:51:04.667Z,66.40
2019-02-10T06:51:39.144Z,66.30
2019-02-10T06:52:13.597Z,66.20
2019-02-10T06:52:48.114Z,66.10
2019-02-10T06:53:22.577Z,66.20
2019-02-10T06:53:57.033Z,66.10
2019-02-10T06:54:31.495Z,66.00
2019-02-10T06:55:08.078Z,65.90
2019-02-10T06:55:42.541Z,65.70
2019-02-10T06:56:16.997Z,65.50
2019-02-10T06:56:51.456Z,65.50
2019-02-10T06:57:25.978Z,65.40
2019-02-10T06:58:00.433Z,65.40
2019-02-10T06:58:34.881Z,65.60
2019-02-10T06:59:10.977Z,65.70
2019-02-10T06:59:49.769Z,65.70
2019-02-10T07:00:25.881Z,65.40
2019-02-10T07:01:01.974Z,65.50
2019-02-10T07:01:38.057Z,65.30
2019-02-10T07:02:30.528Z,65.40
2019-02-10T07:03:31.742Z,65.40
2019-02-10T07:04:12.174Z,65.20
2019-02-10T07:04:46.630Z,65.20
2019-02-10T07:05:21.087Z,65.10
2019-02-10T07:05:55.606Z,65.20
2019-02-10T07:06:30.097Z,65.20
2019-02-10T07:07:04.558Z,65.30
2019-02-10T07:07:39.019Z,65.40
2019-02-10T07:08:13.485Z,65.10
2019-02-10T07:08:47.945Z,65.00
2019-02-10T07:09:24.029Z,65.10
2019-02-10T07:09:58.479Z,65.30
2019-02-10T07:10:32.925Z,65.30
2019-02-10T07:11:07.511Z,65.40
2019-02-10T07:11:41.997Z,65.50
2019-02-10T07:12:47.139Z,65.50
2019-02-10T07:13:24.672Z,65.40
2019-02-10T07:13:59.974Z,65.10
2019-02-10T07:14:34.446Z,65.00
2019-02-10T07:15:11.991Z,65.00
2019-02-10T07:16:22.920Z,65.10
2019-02-10T07:17:06.192Z,65.20
2019-02-10T07:17:43.019Z,65.30
2019-02-10T07:18:29.272Z,65.50
2019-02-10T07:19:34.828Z,65.60
2019-02-10T07:20:34.773Z,65.70
2019-02-10T07:21:09.404Z,65.60
2019-02-10T07:21:44.139Z,65.70
2019-02-10T07:22:36.728Z,65.90
2019-02-10T07:23:47.005Z,66.10
2019-02-10T07:24:33.270Z,66.00
2019-02-10T07:25:13.573Z,66.20
2019-02-10T07:25:48.034Z,66.20
2019-02-10T07:26:24.302Z,66.20
2019-02-10T07:27:18.338Z,66.20
2019-02-10T07:28:04.670Z,66.10
2019-02-10T07:28:40.310Z,66.00
2019-02-10T07:29:17.854Z,66.10
2019-02-10T07:30:07.359Z,66.10
2019-02-10T07:30:44.880Z,66.30
2019-02-10T07:31:19.349Z,66.30
2019-02-10T07:31:53.816Z,66.20
2019-02-10T07:32:30.806Z,66.30
2019-02-10T07:33:07.727Z,67.00
2019-02-10T07:33:59.806Z,66.40
2019-02-10T07:34:47.745Z,66.40
2019-02-10T07:35:40.575Z,66.40
2019-02-10T07:36:23.867Z,66.40
2019-02-10T07:37:10.133Z,66.10
2019-02-10T07:37:47.666Z,66.10
2019-02-10T07:38:46.254Z,66.00
2019-02-10T07:39:38.674Z,65.80
2019-02-10T07:40:22.077Z,65.50
2019-02-10T07:41:32.503Z,65.50
2019-02-10T07:42:21.901Z,65.50